Time,TemperatureF,DewpointF,PressureIn,WindDirection,WindDirectionDegrees,WindSpeedMPH,WindSpeedGustMPH,Humidity,HourlyPrecipIn,Conditions,Clouds,dailyrainin,SoftwareType,DateUTC
2013-02-02 00:00:00,27.1,-4.8,30.06,NNW,327,9.5,10.5,24,0.00,,---,0.00,VWS V14.01,2013-02-02 05:00:00,
2013-02-02 00:02:00,27.1,-4.8,30.06,NNW,335,13.1,13.1,24,0.00,,---,0.00,VWS V14.01,2013-02-02 05:02:00,
2013-02-02 00:04:00,27.0,-5.0,30.06,NW,319,9.3,14.1,24,0.00,,---,0.00,VWS V14.01,2013-02-02 05:04:00,
2013-02-02 00:09:00,27.1,-4.8,30.06,NNW,330,9.3,9.5,24,0.00,,---,0.00,VWS V14.01,2013-02-02 05:09:00,
2013-02-02 00:15:00,27.1,-4.8,30.06,WNW,283,15.2,16.7,24,0.00,,---,0.00,VWS V14.01,2013-02-02 05:15:00,
2013-02-02 00:20:00,27.0,-5.0,30.06,NW,309,6.7,20.6,24,0.00,,---,0.00,VWS V14.01,2013-02-02 05:20:00,
2013-02-02 00:26:00,26.8,-5.2,30.06,WNW,299,6.7,13.6,24,0.00,,---,0.00,VWS V14.01,2013-02-02 05:26:00,
2013-02-02 00:32:00,26.6,-5.3,30.06,WNW,288,9.3,12.6,24,0.00,,---,0.00,VWS V14.01,2013-02-02 05:32:00,
2013-02-02 00:37:00,26.4,-5.5,30.06,NW,304,14.1,14.7,24,0.00,,---,0.00,VWS V14.01,2013-02-02 05:37:00,
2013-02-02 00:43:00,26.2,-5.6,30.06,NNW,337,11.6,13.1,24,0.00,,---,0.00,VWS V14.01,2013-02-02 05:43:00,
2013-02-02 00:49:00,26.2,-5.6,30.06,NNW,327,6.7,9.3,24,0.00,,---,0.00,VWS V14.01,2013-02-02 05:49:00,
2013-02-02 00:54:00,26.1,-5.8,30.06,WNW,291,16.7,17.8,24,0.00,,---,0.00,VWS V14.01,2013-02-02 05:54:00,
2013-02-02 01:00:00,26.1,-5.8,30.06,NW,308,12.6,13.1,24,0.00,,---,0.00,VWS V14.01,2013-02-02 06:00:00,
2013-02-02 01:05:00,26.2,-5.6,30.06,NW,316,16.2,16.2,24,0.00,,---,0.00,VWS V14.01,2013-02-02 06:05:00,
2013-02-02 01:11:00,26.1,-5.8,30.06,WNW,299,12.1,14.7,24,0.00,,---,0.00,VWS V14.01,2013-02-02 06:11:00,
2013-02-02 01:26:00,25.9,-5.9,30.06,NNW,339,7.2,22.1,24,0.00,,---,0.00,VWS V14.01,2013-02-02 06:26:00,
2013-02-02 01:32:00,25.7,-6.1,30.06,WNW,302,10.0,15.2,24,0.00,,---,0.00,VWS V14.01,2013-02-02 06:32:00,
2013-02-02 01:38:00,25.7,-6.1,30.06,WNW,291,8.7,14.1,24,0.00,,---,0.00,VWS V14.01,2013-02-02 06:38:00,
2013-02-02 01:43:00,25.7,-6.1,30.06,NW,323,9.3,15.2,24,0.00,,---,0.00,VWS V14.01,2013-02-02 06:43:00,
2013-02-02 01:48:00,25.7,-6.1,30.06,NW,317,16.7,17.8,24,0.00,,---,0.00,VWS V14.01,2013-02-02 06:48:00,
2013-02-02 01:53:00,25.7,-6.1,30.09,NW,309,13.1,16.2,24,0.00,,---,0.00,VWS V14.01,2013-02-02 06:53:00,
2013-02-02 01:59:00,25.5,-6.2,30.09,West,280,11.6,17.2,24,0.00,,---,0.00,VWS V14.01,2013-02-02 06:59:00,
2013-02-02 02:04:00,25.5,-6.2,30.09,WSW,237,11.6,14.7,24,0.00,,---,0.00,VWS V14.01,2013-02-02 07:04:00,
2013-02-02 02:09:00,25.5,-6.2,30.09,South,191,8.2,10.0,24,0.00,,---,0.00,VWS V14.01,2013-02-02 07:09:00,
2013-02-02 02:14:00,25.7,-6.1,30.09,NW,310,5.7,9.5,24,0.00,,---,0.00,VWS V14.01,2013-02-02 07:14:00,
2013-02-02 02:19:00,25.5,-6.2,30.09,WNW,297,9.5,9.5,24,0.00,,---,0.00,VWS V14.01,2013-02-02 07:19:00,
2013-02-02 02:25:00,25.5,-6.2,30.09,NW,311,8.7,11.1,24,0.00,,---,0.00,VWS V14.01,2013-02-02 07:25:00,
2013-02-02 02:31:00,25.5,-6.2,30.09,WNW,302,7.2,10.0,24,0.00,,---,0.00,VWS V14.01,2013-02-02 07:31:00,
2013-02-02 02:36:00,25.5,-6.2,30.09,WNW,301,4.1,12.1,24,0.00,,---,0.00,VWS V14.01,2013-02-02 07:36:00,
2013-02-02 02:42:00,25.5,-6.2,30.09,NW,325,11.6,15.2,24,0.00,,---,0.00,VWS V14.01,2013-02-02 07:42:00,
2013-02-02 02:48:00,25.5,-6.2,30.09,NW,313,14.1,14.1,24,0.00,,---,0.00,VWS V14.01,2013-02-02 07:48:00,
2013-02-02 02:53:00,25.7,-6.1,30.09,West,260,7.2,14.7,24,0.00,,---,0.00,VWS V14.01,2013-02-02 07:53:00,
2013-02-02 02:59:00,25.7,-6.1,30.09,NNW,343,11.6,15.2,24,0.00,,---,0.00,VWS V14.01,2013-02-02 07:59:00,
2013-02-02 03:06:00,25.7,-6.1,30.09,WSW,242,6.7,14.7,24,0.00,,---,0.00,VWS V14.01,2013-02-02 08:06:00,
2013-02-02 03:11:00,25.7,-6.1,30.09,NW,310,9.3,12.6,24,0.00,,---,0.00,VWS V14.01,2013-02-02 08:11:00,
2013-02-02 03:17:00,25.9,-5.9,30.09,SSW,210,10.0,18.3,24,0.00,,---,0.00,VWS V14.01,2013-02-02 08:17:00,
2013-02-02 03:23:00,25.9,-5.9,30.09,NW,325,6.7,10.0,24,0.00,,---,0.00,VWS V14.01,2013-02-02 08:23:00,
2013-02-02 03:28:00,25.9,-5.9,30.09,WSW,250,4.1,9.5,24,0.00,,---,0.00,VWS V14.01,2013-02-02 08:28:00,
2013-02-02 03:34:00,25.9,-5.9,30.09,NW,321,7.7,12.1,24,0.00,,---,0.00,VWS V14.01,2013-02-02 08:34:00,
2013-02-02 03:39:00,25.7,-6.1,30.09,WNW,299,6.2,7.2,24,0.00,,---,0.00,VWS V14.01,2013-02-02 08:39:00,
2013-02-02 03:44:00,25.7,-6.1,30.09,NW,324,9.3,9.5,24,0.00,,---,0.00,VWS V14.01,2013-02-02 08:44:00,
2013-02-02 03:49:00,25.7,-6.1,30.09,West,281,9.3,11.6,24,0.00,,---,0.00,VWS V14.01,2013-02-02 08:49:00,
2013-02-02 03:54:00,25.7,-6.1,30.09,NW,310,4.6,8.7,24,0.00,,---,0.00,VWS V14.01,2013-02-02 08:54:00,
2013-02-02 03:59:00,25.7,-6.1,30.09,NW,320,6.7,10.0,24,0.00,,---,0.00,VWS V14.01,2013-02-02 08:59:00,
2013-02-02 04:05:00,25.7,-6.1,30.09,NW,314,9.3,11.1,24,0.00,,---,0.00,VWS V14.01,2013-02-02 09:05:00,
2013-02-02 04:10:00,25.7,-6.1,30.09,WNW,299,8.7,9.3,24,0.00,,---,0.00,VWS V14.01,2013-02-02 09:10:00,
2013-02-02 04:16:00,25.7,-6.1,30.09,WNW,298,6.2,11.6,24,0.00,,---,0.00,VWS V14.01,2013-02-02 09:16:00,
2013-02-02 04:21:00,25.7,-6.1,30.09,NW,326,7.2,11.1,24,0.00,,---,0.00,VWS V14.01,2013-02-02 09:21:00,
2013-02-02 04:27:00,25.7,-6.1,30.09,West,281,5.7,5.7,24,0.00,,---,0.00,VWS V14.01,2013-02-02 09:27:00,
2013-02-02 04:33:00,25.7,-6.1,30.09,WNW,299,4.6,9.5,24,0.00,,---,0.00,VWS V14.01,2013-02-02 09:33:00,
2013-02-02 04:38:00,25.7,-6.1,30.09,NW,313,4.6,6.2,24,0.00,,---,0.00,VWS V14.01,2013-02-02 09:38:00,
2013-02-02 04:44:00,25.7,-6.1,30.09,West,275,4.1,12.1,24,0.00,,---,0.00,VWS V14.01,2013-02-02 09:44:00,
2013-02-02 04:49:00,25.7,-6.1,30.09,WNW,289,6.7,7.7,24,0.00,,---,0.00,VWS V14.01,2013-02-02 09:49:00,
2013-02-02 04:55:00,25.7,-6.1,30.09,WSW,237,6.2,6.7,24,0.00,,---,0.00,VWS V14.01,2013-02-02 09:55:00,
2013-02-02 05:01:00,25.7,-6.1,30.09,WNW,295,5.1,6.2,24,0.00,,---,0.00,VWS V14.01,2013-02-02 10:01:00,
2013-02-02 05:06:00,25.7,-6.1,30.12,West,259,6.2,9.5,24,0.00,,---,0.00,VWS V14.01,2013-02-02 10:06:00,
2013-02-02 05:12:00,25.5,-6.2,30.12,WNW,302,7.2,7.2,24,0.00,,---,0.00,VWS V14.01,2013-02-02 10:12:00,
2013-02-02 05:17:00,25.5,-6.2,30.12,NW,312,4.1,7.7,24,0.00,,---,0.00,VWS V14.01,2013-02-02 10:17:00,
2013-02-02 05:23:00,25.5,-6.2,30.12,NW,307,10.0,10.0,24,0.00,,---,0.00,VWS V14.01,2013-02-02 10:23:00,
2013-02-02 05:29:00,25.5,-6.2,30.12,NW,305,16.2,16.2,24,0.00,,---,0.00,VWS V14.01,2013-02-02 10:29:00,
2013-02-02 05:34:00,25.5,-6.2,30.12,West,273,4.6,6.7,24,0.00,,---,0.00,VWS V14.01,2013-02-02 10:34:00,
2013-02-02 05:40:00,25.5,-6.2,30.12,West,262,4.1,7.2,24,0.00,,---,0.00,VWS V14.01,2013-02-02 10:40:00,
2013-02-02 05:45:00,25.5,-6.2,30.12,WNW,294,3.6,10.0,24,0.00,,---,0.00,VWS V14.01,2013-02-02 10:45:00,
2013-02-02 05:51:00,25.5,-6.2,30.12,West,273,11.1,11.1,24,0.00,,---,0.00,VWS V14.01,2013-02-02 10:51:00,
2013-02-02 05:57:00,25.5,-6.2,30.12,NW,305,11.1,11.1,24,0.00,,---,0.00,VWS V14.01,2013-02-02 10:57:00,
2013-02-02 06:02:00,25.5,-6.2,30.12,NW,320,6.7,7.7,24,0.00,,---,0.00,VWS V14.01,2013-02-02 11:02:00,
2013-02-02 06:08:00,25.3,-6.4,30.12,North,353,6.2,14.7,24,0.00,,---,0.00,VWS V14.01,2013-02-02 11:08:00,
2013-02-02 06:13:00,25.3,-6.4,30.12,NW,310,7.2,8.7,24,0.00,,---,0.00,VWS V14.01,2013-02-02 11:13:00,
2013-02-02 06:19:00,25.0,-6.7,30.12,WNW,282,6.2,9.5,24,0.00,,---,0.00,VWS V14.01,2013-02-02 11:19:00,
2013-02-02 06:25:00,24.8,-6.0,30.12,NW,319,4.6,8.7,25,0.00,,---,0.00,VWS V14.01,2013-02-02 11:25:00,
2013-02-02 06:30:00,24.6,-6.2,30.12,WNW,288,7.2,9.3,25,0.00,,---,0.00,VWS V14.01,2013-02-02 11:30:00,
2013-02-02 06:36:00,24.4,-6.3,30.18,NW,322,6.7,9.5,25,0.00,,---,0.00,VWS V14.01,2013-02-02 11:36:00,
2013-02-02 06:41:00,24.3,-6.5,30.18,NW,311,5.7,9.5,25,0.00,,---,0.00,VWS V14.01,2013-02-02 11:41:00,
2013-02-02 06:47:00,23.9,-6.8,30.18,NNW,327,4.6,6.7,25,0.00,,---,0.00,VWS V14.01,2013-02-02 11:47:00,
2013-02-02 06:52:00,23.7,-6.9,30.18,NW,306,6.2,6.2,25,0.00,,---,0.00,VWS V14.01,2013-02-02 11:52:00,
2013-02-02 06:58:00,23.7,-6.9,30.18,NW,307,7.2,7.2,25,0.00,,---,0.00,VWS V14.01,2013-02-02 11:58:00,
2013-02-02 07:04:00,24.1,-6.6,30.18,NNW,335,4.1,7.2,25,0.00,,---,0.00,VWS V14.01,2013-02-02 12:04:00,
2013-02-02 07:09:00,24.3,-6.5,30.18,WNW,296,6.7,6.7,25,0.00,,---,0.00,VWS V14.01,2013-02-02 12:09:00,
2013-02-02 07:15:00,24.4,-6.3,30.18,West,272,4.1,4.6,25,0.00,,---,0.00,VWS V14.01,2013-02-02 12:15:00,
2013-02-02 07:21:00,24.4,-6.3,30.21,West,281,3.6,9.5,25,0.00,,---,0.00,VWS V14.01,2013-02-02 12:21:00,
2013-02-02 07:26:00,24.4,-6.3,30.21,WSW,254,7.2,7.2,25,0.00,,---,0.00,VWS V14.01,2013-02-02 12:26:00,
2013-02-02 07:32:00,24.4,-6.3,30.21,NW,308,4.6,9.3,25,0.00,,---,0.00,VWS V14.01,2013-02-02 12:32:00,
2013-02-02 07:37:00,24.4,-6.3,30.21,NW,311,3.6,6.7,25,0.00,,---,0.00,VWS V14.01,2013-02-02 12:37:00,
2013-02-02 07:43:00,24.4,-6.3,30.21,West,261,8.2,9.3,25,0.00,,---,0.00,VWS V14.01,2013-02-02 12:43:00,
2013-02-02 07:49:00,24.6,-6.2,30.21,WNW,294,4.1,5.7,25,0.00,,---,0.00,VWS V14.01,2013-02-02 12:49:00,
2013-02-02 07:54:00,24.6,-6.2,30.21,NW,320,9.3,10.5,25,0.00,,---,0.00,VWS V14.01,2013-02-02 12:54:00,
2013-02-02 08:00:00,25.0,-6.7,30.21,WNW,289,4.6,12.6,24,0.00,,---,0.00,VWS V14.01,2013-02-02 13:00:00,
2013-02-02 08:05:00,25.0,-6.7,30.21,West,277,9.5,9.5,24,0.00,,---,0.00,VWS V14.01,2013-02-02 13:05:00,
2013-02-02 08:11:00,25.0,-6.7,30.24,West,279,4.1,6.2,24,0.00,,---,0.00,VWS V14.01,2013-02-02 13:11:00,
2013-02-02 08:16:00,25.2,-6.6,30.24,West,266,7.2,9.5,24,0.00,,---,0.00,VWS V14.01,2013-02-02 13:16:00,
2013-02-02 08:22:00,25.2,-6.6,30.24,NW,319,5.7,6.7,24,0.00,,---,0.00,VWS V14.01,2013-02-02 13:22:00,
2013-02-02 08:28:00,25.3,-6.4,30.24,WNW,302,4.1,8.7,24,0.00,,---,0.00,VWS V14.01,2013-02-02 13:28:00,
2013-02-02 08:33:00,25.3,-6.4,30.24,NNW,339,9.5,9.5,24,0.00,,---,0.00,VWS V14.01,2013-02-02 13:33:00,
2013-02-02 08:39:00,25.3,-6.4,30.24,WNW,283,3.6,7.2,24,0.00,,---,0.00,VWS V14.01,2013-02-02 13:39:00,
2013-02-02 08:45:00,25.7,-6.1,30.24,WNW,285,5.7,11.6,24,0.00,,---,0.00,VWS V14.01,2013-02-02 13:45:00,
2013-02-02 08:50:00,25.7,-6.1,30.24,NW,323,8.7,9.3,24,0.00,,---,0.00,VWS V14.01,2013-02-02 13:50:00,
2013-02-02 08:56:00,26.1,-5.8,30.24,NW,307,3.1,4.6,24,0.00,,---,0.00,VWS V14.01,2013-02-02 13:56:00,
2013-02-02 09:01:00,26.1,-5.8,30.24,NW,321,8.2,12.1,24,0.00,,---,0.00,VWS V14.01,2013-02-02 14:01:00,
2013-02-02 09:07:00,26.4,-5.5,30.27,WNW,301,7.2,7.2,24,0.00,,---,0.00,VWS V14.01,2013-02-02 14:07:00,
2013-02-02 09:12:00,26.6,-5.3,30.27,WNW,283,2.6,4.1,24,0.00,,---,0.00,VWS V14.01,2013-02-02 14:12:00,
2013-02-02 09:18:00,26.8,-5.2,30.27,NW,318,3.6,3.6,24,0.00,,---,0.00,VWS V14.01,2013-02-02 14:18:00,
2013-02-02 09:24:00,26.8,-5.2,30.27,West,261,7.2,7.2,24,0.00,,---,0.00,VWS V14.01,2013-02-02 14:24:00,
2013-02-02 09:29:00,27.0,-5.0,30.27,WNW,297,4.6,5.7,24,0.00,,---,0.00,VWS V14.01,2013-02-02 14:29:00,
2013-02-02 09:35:00,26.8,-5.2,30.27,SW,232,4.6,7.2,24,0.00,,---,0.00,VWS V14.01,2013-02-02 14:35:00,
2013-02-02 09:41:00,27.0,-5.0,30.27,West,260,6.7,7.2,24,0.00,,---,0.00,VWS V14.01,2013-02-02 14:41:00,
2013-02-02 09:47:00,27.1,-4.8,30.27,West,269,2.6,9.5,24,0.00,,---,0.00,VWS V14.01,2013-02-02 14:47:00,
2013-02-02 09:53:00,27.1,-4.8,30.27,WNW,292,3.6,6.7,24,0.00,,---,0.00,VWS V14.01,2013-02-02 14:53:00,